Terminal Aerodrome Forecast
Issued by NWS

Home | Current Version | Previous Version | Text Only | Print | Product List | Glossary On
Versions: 1 2 3 4 5 6 7 8 9 10 11 12 13 14 15 16 17
000
FTUS43 KGRR 181128
TAFBTL
TAF
KBTL 181128Z 1812/1912 27012G20KT P6SM VCSH BKN025 OVC035
      TEMPO 1812/1816 OVC015
     FM182100 28013G22KT P6SM BKN040
     FM190000 26005KT P6SM SCT040 BKN120
     FM190600 21003KT P6SM VCSH BKN040=

USA.gov is the U.S. government's official web portal to all federal, state and local government web resources and services.